createdAt,value
2022-10-01T00:01:28.900Z,87.51
2022-10-01T00:03:58.596Z,87.94
2022-10-01T00:06:27.452Z,88.88
2022-10-01T00:08:55.785Z,89.68
2022-10-01T00:11:26.779Z,88.91
2022-10-01T00:13:55.827Z,89.21
2022-10-01T00:16:26.767Z,89.24
2022-10-01T00:18:55.965Z,89.29
2022-10-01T00:21:29.206Z,88.92
2022-10-01T00:23:59.372Z,88.71
2022-10-01T00:26:30.669Z,88.48
2022-10-01T00:29:02.331Z,88.27
2022-10-01T00:31:31.105Z,88.63
2022-10-01T00:34:02.711Z,88.86
2022-10-01T00:36:33.573Z,89.11
2022-10-01T00:39:02.277Z,89.42
2022-10-01T00:41:33.751Z,88.67
2022-10-01T00:44:05.527Z,89.33
2022-10-01T00:46:43.010Z,89.65
2022-10-01T00:49:16.648Z,89.69
2022-10-01T00:51:51.359Z,90.31
2022-10-01T00:54:25.371Z,89.23
2022-10-01T00:56:58.074Z,89.70
2022-10-01T00:59:27.164Z,89.83
2022-10-01T01:01:55.967Z,90.48
2022-10-01T01:04:24.493Z,90.82
2022-10-01T01:06:57.776Z,90.88
2022-10-01T01:09:30.144Z,91.23
2022-10-01T01:12:08.748Z,91.27
2022-10-01T01:14:44.791Z,91.12
2022-10-01T01:17:20.340Z,91.12
2022-10-01T01:20:16.219Z,90.68
2022-10-01T01:22:51.945Z,91.34
2022-10-01T01:25:23.935Z,90.51
2022-10-01T01:28:06.684Z,90.07
2022-10-01T01:30:39.007Z,90.00
2022-10-01T01:33:15.783Z,90.51
2022-10-01T01:35:52.927Z,90.09
2022-10-01T01:38:28.004Z,90.31
2022-10-01T01:41:00.180Z,91.95
2022-10-01T01:43:33.220Z,91.86
2022-10-01T01:46:04.414Z,91.62
2022-10-01T01:48:36.477Z,92.12
2022-10-01T01:51:13.009Z,92.75
2022-10-01T01:53:42.119Z,92.34
2022-10-01T01:56:10.749Z,92.15
2022-10-01T01:58:41.100Z,91.56
2022-10-01T02:01:35.426Z,91.14
2022-10-01T02:04:07.613Z,91.55
2022-10-01T02:06:50.488Z,91.05
2022-10-01T02:09:29.441Z,91.61
2022-10-01T02:12:12.193Z,91.09
2022-10-01T02:14:54.431Z,90.58
2022-10-01T02:17:33.228Z,90.96
2022-10-01T02:20:08.346Z,90.76
2022-10-01T02:22:43.840Z,92.01
2022-10-01T02:25:13.032Z,91.63
2022-10-01T02:27:49.893Z,91.12
2022-10-01T02:30:20.247Z,91.65
2022-10-01T02:32:51.344Z,90.25
2022-10-01T02:35:22.003Z,90.56
2022-10-01T02:37:54.080Z,90.62
2022-10-01T02:40:27.230Z,90.51
2022-10-01T02:43:01.092Z,89.86
2022-10-01T02:45:35.531Z,89.34
2022-10-01T02:48:07.630Z,90.05
2022-10-01T02:50:45.043Z,89.12
2022-10-01T02:53:20.956Z,89.07
2022-10-01T02:55:51.310Z,89.16
2022-10-01T02:58:19.764Z,88.64
2022-10-01T03:00:50.720Z,88.79
2022-10-01T03:03:19.071Z,89.02
2022-10-01T03:05:47.498Z,88.83
2022-10-01T03:08:15.858Z,88.40
2022-10-01T03:10:46.761Z,88.49
2022-10-01T03:13:17.126Z,88.19
2022-10-01T03:15:47.682Z,87.25
2022-10-01T03:18:17.536Z,87.05
2022-10-01T03:20:46.224Z,86.82
2022-10-01T03:23:14.542Z,86.25
2022-10-01T03:25:42.961Z,86.50
2022-10-01T03:28:11.523Z,86.15
2022-10-01T03:30:39.959Z,85.92
2022-10-01T03:33:08.306Z,85.48
2022-10-01T03:35:38.034Z,85.56
2022-10-01T03:38:06.599Z,85.44
2022-10-01T03:40:38.964Z,85.53
2022-10-01T03:43:07.311Z,86.33
2022-10-01T03:45:35.721Z,86.03
2022-10-01T03:48:04.113Z,88.65
2022-10-01T03:50:32.525Z,87.66
2022-10-01T03:53:02.174Z,87.95
2022-10-01T03:55:31.257Z,89.27
2022-10-01T03:57:59.728Z,89.67
2022-10-01T04:00:28.558Z,89.53
2022-10-01T04:02:57.014Z,90.46
2022-10-01T04:05:25.671Z,89.83
2022-10-01T04:07:54.005Z,91.75
2022-10-01T04:10:23.691Z,91.52
2022-10-01T04:12:52.049Z,91.23
2022-10-01T04:15:20.525Z,91.91
2022-10-01T04:17:48.909Z,92.39
2022-10-01T04:20:18.362Z,93.46
2022-10-01T04:22:47.092Z,95.32
2022-10-01T04:25:15.938Z,96.11
2022-10-01T04:27:59.145Z,96.45
2022-10-01T04:30:30.178Z,96.37
2022-10-01T04:32:58.808Z,97.68
2022-10-01T04:35:28.044Z,98.04
2022-10-01T04:38:03.574Z,97.76
2022-10-01T04:40:33.374Z,98.41
2022-10-01T04:43:03.969Z,99.43
2022-10-01T04:45:33.003Z,99.77
2022-10-01T04:48:01.629Z,99.44
2022-10-01T04:50:30.393Z,99.50
2022-10-01T04:52:58.785Z,100.00
2022-10-01T04:55:27.361Z,100.00
2022-10-01T04:57:55.641Z,100.00
2022-10-01T05:00:26.588Z,100.00
2022-10-01T05:02:55.926Z,100.00
2022-10-01T05:05:28.149Z,100.00
2022-10-01T05:07:57.211Z,100.00
2022-10-01T05:10:26.029Z,100.00
2022-10-01T05:12:54.798Z,100.00
2022-10-01T05:15:24.579Z,100.00
2022-10-01T05:17:53.142Z,100.00
2022-10-01T05:20:24.611Z,100.00
2022-10-01T05:22:53.909Z,100.00
2022-10-01T05:25:22.331Z,100.00
2022-10-01T05:27:51.210Z,100.00
2022-10-01T05:30:24.273Z,100.00
2022-10-01T05:32:59.993Z,100.00
2022-10-01T05:35:28.925Z,100.00
2022-10-01T05:37:59.366Z,100.00
2022-10-01T05:40:29.840Z,100.00
2022-10-01T05:42:59.777Z,100.00
2022-10-01T05:45:29.343Z,100.00
2022-10-01T05:48:00.727Z,100.00
2022-10-01T05:50:31.595Z,100.00
2022-10-01T05:53:01.144Z,100.00
2022-10-01T05:55:33.287Z,100.00
2022-10-01T05:58:03.890Z,100.00
2022-10-01T06:00:33.893Z,100.00
2022-10-01T06:03:05.438Z,100.00
2022-10-01T06:05:36.151Z,100.00
2022-10-01T06:08:07.169Z,100.00
2022-10-01T06:10:36.883Z,100.00
2022-10-01T06:13:06.639Z,100.00
2022-10-01T06:15:38.493Z,100.00
2022-10-01T06:18:10.343Z,100.00
2022-10-01T06:20:39.735Z,100.00
2022-10-01T06:23:12.582Z,100.00
2022-10-01T06:25:42.784Z,100.00
2022-10-01T06:28:14.689Z,100.00
2022-10-01T06:30:43.643Z,100.00
2022-10-01T06:33:15.864Z,100.00
2022-10-01T06:35:46.909Z,100.00
2022-10-01T06:38:16.372Z,100.00
2022-10-01T06:40:45.199Z,100.00
2022-10-01T06:43:13.579Z,100.00
2022-10-01T06:45:43.071Z,100.00
2022-10-01T06:48:16.559Z,100.00
2022-10-01T06:50:46.952Z,100.00
2022-10-01T06:53:18.661Z,100.00
2022-10-01T06:55:47.539Z,100.00
2022-10-01T06:58:19.067Z,100.00
2022-10-01T07:00:47.598Z,100.00
2022-10-01T07:03:19.876Z,100.00
2022-10-01T07:05:48.754Z,100.00
2022-10-01T07:08:18.042Z,100.00
2022-10-01T07:10:46.991Z,100.00
2022-10-01T07:13:17.637Z,100.00
2022-10-01T07:15:46.211Z,100.00
2022-10-01T07:18:16.980Z,100.00
2022-10-01T07:20:45.299Z,100.00
2022-10-01T07:23:16.395Z,100.00
2022-10-01T07:25:45.990Z,100.00
2022-10-01T07:28:18.970Z,100.00
2022-10-01T07:30:49.561Z,100.00
2022-10-01T07:33:21.117Z,100.00
2022-10-01T07:35:49.685Z,100.00
2022-10-01T07:38:18.194Z,100.00
2022-10-01T07:40:52.036Z,100.00
2022-10-01T07:43:20.395Z,100.00
2022-10-01T07:45:50.074Z,100.00
2022-10-01T07:48:20.132Z,100.00
2022-10-01T07:50:48.506Z,100.00
2022-10-01T07:53:17.086Z,100.00
2022-10-01T07:55:45.830Z,100.00
2022-10-01T07:58:14.531Z,100.00
2022-10-01T08:00:43.612Z,100.00
2022-10-01T08:03:12.731Z,100.00
2022-10-01T08:05:43.762Z,100.00
2022-10-01T08:08:12.281Z,100.00
2022-10-01T08:10:41.333Z,100.00
2022-10-01T08:13:15.338Z,100.00
2022-10-01T08:15:45.097Z,100.00
2022-10-01T08:18:14.061Z,100.00
2022-10-01T08:20:44.246Z,100.00
2022-10-01T08:23:14.825Z,100.00
2022-10-01T08:25:45.076Z,100.00
2022-10-01T08:28:13.662Z,100.00
2022-10-01T08:30:43.729Z,100.00
2022-10-01T08:33:14.242Z,100.00
2022-10-01T08:35:44.785Z,100.00
2022-10-01T08:38:14.127Z,100.00
2022-10-01T08:40:48.626Z,100.00
2022-10-01T08:43:31.735Z,100.00
2022-10-01T08:46:04.960Z,100.00
2022-10-01T08:48:56.824Z,100.00
2022-10-01T08:51:33.829Z,100.00
2022-10-01T08:54:11.503Z,100.00
2022-10-01T08:56:46.303Z,100.00
2022-10-01T08:59:41.887Z,100.00
2022-10-01T09:02:21.793Z,100.00
2022-10-01T09:04:55.066Z,100.00
2022-10-01T09:07:46.582Z,100.00
2022-10-01T09:10:32.270Z,100.00
2022-10-01T09:13:39.629Z,100.00
2022-10-01T09:16:17.488Z,100.00
2022-10-01T09:19:01.542Z,100.00
2022-10-01T09:21:47.678Z,100.00
2022-10-01T09:24:26.538Z,100.00
2022-10-01T09:26:55.318Z,100.00
2022-10-01T09:29:28.559Z,100.00
2022-10-01T09:31:58.536Z,100.00
2022-10-01T09:34:34.090Z,100.00
2022-10-01T09:37:14.803Z,100.00
2022-10-01T09:39:58.798Z,100.00
2022-10-01T09:42:30.527Z,100.00
2022-10-01T09:44:59.574Z,100.00
2022-10-01T09:47:28.206Z,100.00
2022-10-01T09:49:59.799Z,100.00
2022-10-01T09:52:34.713Z,100.00
2022-10-01T09:55:12.456Z,100.00
2022-10-01T09:57:47.527Z,100.00
2022-10-01T10:00:19.911Z,100.00
2022-10-01T10:02:50.667Z,100.00
2022-10-01T10:05:21.701Z,100.00
2022-10-01T10:07:55.337Z,100.00
2022-10-01T10:10:30.101Z,100.00
2022-10-01T10:13:02.766Z,100.00
2022-10-01T10:15:32.595Z,100.00
2022-10-01T10:18:09.147Z,100.00
2022-10-01T10:20:42.046Z,100.00
2022-10-01T10:23:16.564Z,100.00
2022-10-01T10:25:56.640Z,100.00
2022-10-01T10:28:25.832Z,100.00
2022-10-01T10:30:57.169Z,100.00
2022-10-01T10:33:27.440Z,100.00
2022-10-01T10:36:02.101Z,100.00
2022-10-01T10:38:34.974Z,100.00
2022-10-01T10:41:05.412Z,100.00
2022-10-01T10:43:37.996Z,100.00
2022-10-01T10:46:08.431Z,100.00
2022-10-01T10:48:40.292Z,100.00
2022-10-01T10:51:10.422Z,100.00
2022-10-01T10:53:45.036Z,100.00
2022-10-01T10:56:23.104Z,100.00
2022-10-01T10:58:53.838Z,100.00
2022-10-01T11:01:29.394Z,99.79
2022-10-01T11:04:00.551Z,100.00
2022-10-01T11:06:30.346Z,100.00
2022-10-01T11:09:04.871Z,100.00
2022-10-01T11:11:48.250Z,100.00
2022-10-01T11:14:36.456Z,99.31
2022-10-01T11:17:24.749Z,99.06
2022-10-01T11:20:17.469Z,98.96
2022-10-01T11:23:05.947Z,97.37
2022-10-01T11:25:46.566Z,98.17
2022-10-01T11:28:33.787Z,99.65
2022-10-01T11:31:14.818Z,99.31
2022-10-01T11:33:57.932Z,98.92
2022-10-01T11:36:34.440Z,99.51
2022-10-01T11:39:06.410Z,100.00
2022-10-01T11:41:39.658Z,99.47
2022-10-01T11:44:18.691Z,99.52
2022-10-01T11:46:58.596Z,99.34
2022-10-01T11:49:42.961Z,98.18
2022-10-01T11:52:33.954Z,96.67
2022-10-01T11:55:30.815Z,96.32
2022-10-01T11:58:26.611Z,98.49
2022-10-01T12:01:04.917Z,96.76
2022-10-01T12:03:46.170Z,97.34
2022-10-01T12:06:15.867Z,97.11
2022-10-01T12:08:53.949Z,97.12
2022-10-01T12:11:29.362Z,98.21
2022-10-01T12:14:04.045Z,98.81
2022-10-01T12:16:43.157Z,99.53
2022-10-01T12:19:21.667Z,98.33
2022-10-01T12:21:55.358Z,98.53
2022-10-01T12:24:30.462Z,98.33
2022-10-01T12:27:20.390Z,98.11
2022-10-01T12:29:56.372Z,98.45
2022-10-01T12:32:37.874Z,98.10
2022-10-01T12:35:21.820Z,97.50
2022-10-01T12:38:10.023Z,97.26
2022-10-01T12:40:46.677Z,96.86
2022-10-01T12:43:49.073Z,96.71
2022-10-01T12:46:32.206Z,96.49
2022-10-01T12:49:14.836Z,96.75
2022-10-01T12:51:46.832Z,96.71
2022-10-01T12:54:33.732Z,98.02
2022-10-01T12:57:17.316Z,98.61
2022-10-01T13:00:05.287Z,98.95
2022-10-01T13:03:16.253Z,98.52
2022-10-01T13:05:59.467Z,98.65
2022-10-01T13:09:01.983Z,98.84
2022-10-01T13:11:48.619Z,98.88
2022-10-01T13:14:18.962Z,98.11
2022-10-01T13:16:58.191Z,98.96
2022-10-01T13:19:38.814Z,96.87
2022-10-01T13:22:19.122Z,96.82
2022-10-01T13:25:00.932Z,96.43
2022-10-01T13:27:37.341Z,95.72
2022-10-01T13:30:15.320Z,94.91
2022-10-01T13:32:53.434Z,95.33
2022-10-01T13:35:32.876Z,94.71
2022-10-01T13:38:16.858Z,93.16
2022-10-01T13:40:45.619Z,93.02
2022-10-01T13:43:19.137Z,92.26
2022-10-01T13:45:49.138Z,91.85
2022-10-01T13:48:22.120Z,91.42
2022-10-01T13:51:03.068Z,90.27
2022-10-01T13:53:36.300Z,89.14
2022-10-01T13:56:05.985Z,89.57
2022-10-01T13:58:39.498Z,89.40
2022-10-01T14:01:30.010Z,89.02
2022-10-01T14:04:10.334Z,88.73
2022-10-01T14:06:45.514Z,88.92
2022-10-01T14:09:20.674Z,88.08
2022-10-01T14:12:10.687Z,89.01
2022-10-01T14:14:59.168Z,90.81
2022-10-01T14:17:31.835Z,89.74
2022-10-01T14:20:01.678Z,89.37
2022-10-01T14:22:46.498Z,90.60
2022-10-01T14:25:37.304Z,89.00
2022-10-01T14:28:52.148Z,89.56
2022-10-01T14:31:32.324Z,89.54
2022-10-01T14:34:28.466Z,88.80
2022-10-01T14:36:57.856Z,87.53
2022-10-01T14:39:28.658Z,86.76
2022-10-01T14:41:59.424Z,87.19
2022-10-01T14:44:30.120Z,87.09
2022-10-01T14:47:00.843Z,86.60
2022-10-01T14:49:31.251Z,86.59
2022-10-01T14:52:03.995Z,85.93
2022-10-01T14:54:42.852Z,85.94
2022-10-01T14:57:18.434Z,85.78
2022-10-01T14:59:49.390Z,85.27
2022-10-01T15:02:23.534Z,86.55
2022-10-01T15:04:55.237Z,86.15
2022-10-01T15:07:25.562Z,86.67
2022-10-01T15:09:53.921Z,87.25
2022-10-01T15:12:24.734Z,87.38
2022-10-01T15:14:55.769Z,87.29
2022-10-01T15:17:26.288Z,86.66
2022-10-01T15:19:58.569Z,86.11
2022-10-01T15:22:31.312Z,87.31
2022-10-01T15:25:02.115Z,88.26
2022-10-01T15:27:32.438Z,87.24
2022-10-01T15:30:01.244Z,87.28
2022-10-01T15:32:30.321Z,86.91
2022-10-01T15:35:01.455Z,86.35
2022-10-01T15:37:35.076Z,86.69
2022-10-01T15:40:05.686Z,85.87
2022-10-01T15:42:36.909Z,85.63
2022-10-01T15:45:26.368Z,86.15
2022-10-01T15:47:57.119Z,85.60
2022-10-01T15:50:28.352Z,85.56
2022-10-01T15:53:06.125Z,86.20
2022-10-01T15:55:40.229Z,86.52
2022-10-01T15:58:18.292Z,86.43
2022-10-01T16:01:00.505Z,86.15
2022-10-01T16:03:34.368Z,86.26
2022-10-01T16:06:04.789Z,86.39
2022-10-01T16:08:39.353Z,86.57
2022-10-01T16:11:23.853Z,87.33
2022-10-01T16:14:30.814Z,87.74
2022-10-01T16:17:29.650Z,88.16
2022-10-01T16:20:00.995Z,88.15
2022-10-01T16:22:32.845Z,88.89
2022-10-01T16:25:03.425Z,88.69
2022-10-01T16:27:36.122Z,89.03
2022-10-01T16:30:16.844Z,89.48
2022-10-01T16:32:45.205Z,89.54
2022-10-01T16:35:20.031Z,89.83
2022-10-01T16:37:50.221Z,90.26
2022-10-01T16:40:20.288Z,89.95
2022-10-01T16:42:50.559Z,90.64
2022-10-01T16:45:24.248Z,90.89
2022-10-01T16:47:53.745Z,92.09
2022-10-01T16:50:23.631Z,92.18
2022-10-01T16:52:54.662Z,92.50
2022-10-01T16:55:26.998Z,92.66
2022-10-01T16:57:55.843Z,93.32
2022-10-01T17:00:27.830Z,93.25
2022-10-01T17:02:57.136Z,93.93
2022-10-01T17:05:28.291Z,94.42
2022-10-01T17:08:00.949Z,94.14
2022-10-01T17:10:31.943Z,94.18
2022-10-01T17:13:01.976Z,94.49
2022-10-01T17:15:33.342Z,94.98
2022-10-01T17:18:01.927Z,95.17
2022-10-01T17:20:31.830Z,95.42
2022-10-01T17:23:00.566Z,95.55
2022-10-01T17:25:32.257Z,96.16
2022-10-01T17:28:02.437Z,96.35
2022-10-01T17:30:32.980Z,96.87
2022-10-01T17:33:02.401Z,97.36
2022-10-01T17:35:31.423Z,98.60
2022-10-01T17:37:59.998Z,99.14
2022-10-01T17:40:29.040Z,99.56
2022-10-01T17:43:00.331Z,99.91
2022-10-01T17:45:30.183Z,100.00
2022-10-01T17:48:00.678Z,100.00
2022-10-01T17:50:30.332Z,100.00
2022-10-01T17:53:00.781Z,100.00
2022-10-01T17:55:29.469Z,100.00
2022-10-01T17:57:58.090Z,100.00
2022-10-01T18:00:26.626Z,100.00
2022-10-01T18:02:55.789Z,100.00
2022-10-01T18:05:27.868Z,100.00
2022-10-01T18:07:58.665Z,100.00
2022-10-01T18:10:33.151Z,100.00
2022-10-01T18:13:02.879Z,100.00
2022-10-01T18:15:59.962Z,99.79
2022-10-01T18:21:18.128Z,99.50
2022-10-01T18:23:46.452Z,99.45
2022-10-01T18:26:15.602Z,99.46
2022-10-01T18:28:44.000Z,99.29
2022-10-01T18:31:21.567Z,99.45
2022-10-01T18:33:53.761Z,99.35
2022-10-01T18:36:40.405Z,98.83
2022-10-01T18:39:15.564Z,98.90
2022-10-01T18:41:44.410Z,98.90
2022-10-01T18:44:19.940Z,98.63
2022-10-01T18:47:04.114Z,98.50
2022-10-01T18:50:12.985Z,98.47
2022-10-01T18:52:59.640Z,97.80
2022-10-01T18:55:55.468Z,97.38
2022-10-01T18:58:53.641Z,96.93
2022-10-01T19:01:31.971Z,96.41
2022-10-01T19:04:33.880Z,96.16
2022-10-01T19:07:11.580Z,94.89
2022-10-01T19:09:52.542Z,95.15
2022-10-01T19:12:42.145Z,94.93
2022-10-01T19:15:21.248Z,94.66
2022-10-01T19:17:59.328Z,93.98
2022-10-01T19:20:46.156Z,93.57
2022-10-01T19:23:40.934Z,93.22
2022-10-01T19:26:18.272Z,92.75
2022-10-01T19:29:07.536Z,92.71
2022-10-01T19:31:45.315Z,92.81
2022-10-01T19:34:19.916Z,92.79
2022-10-01T19:36:55.443Z,92.69
2022-10-01T19:39:28.342Z,92.66
2022-10-01T19:42:04.181Z,92.88
2022-10-01T19:44:38.466Z,92.92
2022-10-01T19:47:25.043Z,92.54
2022-10-01T19:49:57.113Z,92.57
2022-10-01T19:52:27.184Z,92.50
2022-10-01T19:54:59.123Z,92.73
2022-10-01T19:57:30.845Z,92.96
2022-10-01T20:00:04.423Z,92.78
2022-10-01T20:02:45.806Z,92.85
2022-10-01T20:05:18.228Z,93.14
2022-10-01T20:07:51.967Z,92.98
2022-10-01T20:10:26.916Z,93.18
2022-10-01T20:13:18.118Z,93.08
2022-10-01T20:15:55.366Z,93.29
2022-10-01T20:18:35.720Z,93.59
2022-10-01T20:21:20.890Z,93.19
2022-10-01T20:23:59.169Z,92.81
2022-10-01T20:26:37.932Z,93.10
2022-10-01T20:29:32.245Z,93.07
2022-10-01T20:32:08.847Z,92.40
2022-10-01T20:34:49.829Z,93.26
2022-10-01T20:37:35.130Z,93.59
2022-10-01T20:40:14.563Z,94.21
2022-10-01T20:42:48.843Z,93.95
2022-10-01T20:45:24.419Z,93.54
2022-10-01T20:48:00.476Z,93.10
2022-10-01T20:50:35.552Z,93.31
2022-10-01T20:53:19.153Z,93.29
2022-10-01T20:55:52.303Z,92.93
2022-10-01T20:58:25.305Z,92.99
2022-10-01T21:01:01.180Z,93.04
2022-10-01T21:03:35.329Z,93.43
2022-10-01T21:06:08.478Z,93.42
2022-10-01T21:08:49.847Z,93.41
2022-10-01T21:11:28.141Z,93.76
2022-10-01T21:14:07.282Z,93.87
2022-10-01T21:17:11.012Z,94.35
2022-10-01T21:19:57.591Z,94.17
2022-10-01T21:22:41.554Z,94.83
2022-10-01T21:25:21.488Z,95.03
2022-10-01T21:28:10.489Z,95.60
2022-10-01T21:30:57.048Z,95.77
2022-10-01T21:33:32.793Z,95.51
2022-10-01T21:36:09.019Z,95.80
2022-10-01T21:38:45.940Z,95.98
2022-10-01T21:41:52.070Z,96.35
2022-10-01T21:45:01.493Z,96.16
2022-10-01T21:47:44.113Z,96.21
2022-10-01T21:50:26.174Z,96.31
2022-10-01T21:53:25.412Z,96.86
2022-10-01T21:56:24.756Z,97.07
2022-10-01T21:59:07.186Z,97.32
2022-10-01T22:02:01.588Z,97.32
2022-10-01T22:04:39.260Z,97.31
2022-10-01T22:07:19.018Z,97.83
2022-10-01T22:10:05.606Z,98.73
2022-10-01T22:12:37.543Z,98.72
2022-10-01T22:15:21.220Z,99.29
2022-10-01T22:17:52.682Z,100.00
2022-10-01T22:20:23.362Z,100.00
2022-10-01T22:22:57.937Z,100.00
2022-10-01T22:25:28.199Z,100.00
2022-10-01T22:28:02.472Z,100.00
2022-10-01T22:30:36.988Z,100.00
2022-10-01T22:33:11.762Z,100.00
2022-10-01T22:35:46.622Z,100.00
2022-10-01T22:38:21.186Z,100.00
2022-10-01T22:40:55.173Z,100.00
2022-10-01T22:43:23.488Z,100.00
2022-10-01T22:46:19.901Z,100.00
2022-10-01T22:48:59.901Z,100.00
2022-10-01T22:51:49.800Z,100.00
2022-10-01T22:54:33.042Z,100.00
2022-10-01T22:57:18.853Z,100.00
2022-10-01T22:59:59.613Z,100.00
2022-10-01T23:02:38.849Z,100.00
2022-10-01T23:05:31.565Z,100.00
2022-10-01T23:08:12.143Z,100.00
2022-10-01T23:10:56.090Z,100.00
2022-10-01T23:13:32.004Z,100.00
2022-10-01T23:16:09.984Z,100.00
2022-10-01T23:18:48.668Z,100.00
2022-10-01T23:21:32.615Z,100.00
2022-10-01T23:24:20.327Z,100.00
2022-10-01T23:27:01.712Z,100.00
2022-10-01T23:29:57.340Z,100.00
2022-10-01T23:32:41.174Z,100.00
2022-10-01T23:35:15.909Z,100.00
2022-10-01T23:38:14.708Z,100.00
2022-10-01T23:40:48.189Z,100.00
2022-10-01T23:43:25.054Z,100.00
2022-10-01T23:46:02.117Z,100.00
2022-10-01T23:48:38.884Z,100.00
2022-10-01T23:51:12.393Z,100.00
2022-10-01T23:53:49.192Z,100.00
2022-10-01T23:56:41.197Z,100.00
2022-10-01T23:59:19.358Z,100.00
